createdAt,value
2023-11-01T00:00:57.097Z,997.69
2023-11-01T00:01:57.133Z,997.65
2023-11-01T00:02:57.284Z,997.67
2023-11-01T00:03:57.284Z,997.62
2023-11-01T00:04:57.296Z,997.63
2023-11-01T00:05:57.370Z,997.65
2023-11-01T00:06:57.401Z,997.65
2023-11-01T00:07:57.456Z,997.66
2023-11-01T00:08:57.520Z,997.64
2023-11-01T00:09:57.560Z,997.65
2023-11-01T00:10:57.622Z,997.61
2023-11-01T00:11:57.668Z,997.62
2023-11-01T00:12:57.720Z,997.61
2023-11-01T00:13:57.795Z,997.65
2023-11-01T00:14:57.828Z,997.58
2023-11-01T00:15:57.884Z,997.61
2023-11-01T00:16:57.963Z,997.62
2023-11-01T00:17:58.100Z,997.56
2023-11-01T00:18:58.043Z,997.52
2023-11-01T00:19:58.107Z,997.53
2023-11-01T00:20:58.150Z,997.55
2023-11-01T00:21:58.199Z,997.57
2023-11-01T00:22:58.258Z,997.56
2023-11-01T00:23:58.309Z,997.56
2023-11-01T00:24:58.374Z,997.62
2023-11-01T00:25:58.416Z,997.50
2023-11-01T00:26:58.472Z,997.48
2023-11-01T00:27:58.528Z,997.42
2023-11-01T00:28:58.585Z,997.44
2023-11-01T00:29:58.648Z,997.45
2023-11-01T00:30:58.684Z,997.40
2023-11-01T00:31:58.741Z,997.43
2023-11-01T00:32:58.886Z,997.43
2023-11-01T00:33:58.910Z,997.44
2023-11-01T00:34:58.942Z,997.48
2023-11-01T00:35:58.949Z,997.50
2023-11-01T00:36:59.017Z,997.51
2023-11-01T00:37:59.056Z,997.49
2023-11-01T00:38:59.116Z,997.49
2023-11-01T00:39:59.165Z,997.53
2023-11-01T00:40:59.219Z,997.55
2023-11-01T00:41:59.276Z,997.55
2023-11-01T00:42:59.330Z,997.54
2023-11-01T00:43:59.383Z,997.49
2023-11-01T00:44:59.435Z,997.56
2023-11-01T00:45:59.516Z,997.50
2023-11-01T00:46:59.664Z,997.48
2023-11-01T00:47:59.682Z,997.46
2023-11-01T00:48:59.646Z,997.41
2023-11-01T00:49:59.700Z,997.44
2023-11-01T00:50:59.769Z,997.44
2023-11-01T00:51:59.810Z,997.46
2023-11-01T00:52:59.861Z,997.45
2023-11-01T00:53:59.915Z,997.45
2023-11-01T00:54:59.965Z,997.39
2023-11-01T00:56:00.022Z,997.39
2023-11-01T00:57:00.102Z,997.40
2023-11-01T00:58:00.136Z,997.32
2023-11-01T00:59:00.179Z,997.37
2023-11-01T01:00:00.252Z,997.34
2023-11-01T01:01:00.315Z,997.32
2023-11-01T01:02:00.374Z,997.38
2023-11-01T01:03:00.507Z,997.33
2023-11-01T01:04:00.694Z,997.31
2023-11-01T01:05:00.517Z,997.32
2023-11-01T01:06:00.552Z,997.33
2023-11-01T01:07:00.607Z,997.29
2023-11-01T01:08:00.676Z,997.28
2023-11-01T01:09:00.735Z,997.28
2023-11-01T01:10:00.792Z,997.21
2023-11-01T01:11:00.821Z,997.20
2023-11-01T01:12:00.872Z,997.21
2023-11-01T01:13:00.936Z,997.20
2023-11-01T01:14:00.983Z,997.26
2023-11-01T01:15:01.059Z,997.24
2023-11-01T01:16:01.116Z,997.21
2023-11-01T01:17:01.157Z,997.19
2023-11-01T01:18:01.302Z,997.19
2023-11-01T01:19:01.249Z,997.19
2023-11-01T01:20:01.323Z,997.15
2023-11-01T01:21:01.359Z,997.12
2023-11-01T01:22:01.410Z,997.13
2023-11-01T01:23:01.465Z,997.10
2023-11-01T01:24:01.517Z,997.13
2023-11-01T01:25:01.593Z,997.05
2023-11-01T01:26:01.629Z,997.05
2023-11-01T01:27:01.675Z,996.99
2023-11-01T01:28:01.740Z,997.01
2023-11-01T01:29:01.782Z,996.99
2023-11-01T01:30:01.843Z,996.98
2023-11-01T01:31:01.890Z,997.00
2023-11-01T01:32:01.949Z,996.98
2023-11-01T01:33:02.015Z,996.94
2023-11-01T01:34:02.076Z,996.99
2023-11-01T01:35:02.140Z,996.98
2023-11-01T01:36:02.154Z,996.93
2023-11-01T01:37:02.208Z,996.94
2023-11-01T01:38:02.265Z,996.93
2023-11-01T01:39:02.314Z,996.91
2023-11-01T01:40:02.372Z,996.97
2023-11-01T01:41:02.421Z,996.88
2023-11-01T01:42:02.481Z,996.85
2023-11-01T01:43:02.589Z,996.88
2023-11-01T01:44:02.715Z,996.86
2023-11-01T01:45:02.638Z,996.80
2023-11-01T01:46:02.726Z,996.75
2023-11-01T01:47:02.746Z,996.76
2023-11-01T01:48:02.921Z,996.72
2023-11-01T01:49:02.852Z,996.71
2023-11-01T01:50:02.937Z,996.62
2023-11-01T01:51:02.952Z,996.60
2023-11-01T01:52:03.007Z,996.60
2023-11-01T01:53:03.066Z,996.66
2023-11-01T01:54:03.111Z,996.60
2023-11-01T01:55:03.170Z,996.56
2023-11-01T01:56:03.225Z,996.57
2023-11-01T01:57:03.284Z,996.53
2023-11-01T01:58:03.328Z,996.56
2023-11-01T01:59:03.381Z,996.53
2023-11-01T02:00:03.437Z,996.52
2023-11-01T02:01:03.515Z,996.50
2023-11-01T02:02:03.591Z,996.50
2023-11-01T02:03:03.726Z,996.48
2023-11-01T02:04:03.654Z,996.50
2023-11-01T02:05:03.701Z,996.47
2023-11-01T02:06:03.802Z,996.46
2023-11-01T02:07:03.812Z,996.48
2023-11-01T02:08:03.874Z,996.45
2023-11-01T02:09:03.914Z,996.47
2023-11-01T02:10:03.987Z,996.48
2023-11-01T02:11:04.020Z,996.45
2023-11-01T02:12:04.138Z,996.46
2023-11-01T02:13:04.138Z,996.44
2023-11-01T02:14:04.208Z,996.44
2023-11-01T02:15:04.247Z,996.42
2023-11-01T02:16:04.343Z,996.41
2023-11-01T02:17:04.346Z,996.38
2023-11-01T02:18:04.412Z,996.36
2023-11-01T02:19:04.450Z,996.35
2023-11-01T02:20:04.520Z,996.34
2023-11-01T02:21:04.554Z,996.30
2023-11-01T02:22:04.646Z,996.29
2023-11-01T02:23:04.666Z,996.25
2023-11-01T02:24:04.723Z,996.23
2023-11-01T02:25:04.768Z,996.25
2023-11-01T02:26:04.830Z,996.24
2023-11-01T02:27:04.879Z,996.22
2023-11-01T02:28:04.938Z,996.26
2023-11-01T02:29:04.989Z,996.16
2023-11-01T02:30:05.034Z,996.17
2023-11-01T02:31:05.093Z,996.20
2023-11-01T02:32:05.143Z,996.18
2023-11-01T02:33:05.205Z,996.17
2023-11-01T02:34:05.253Z,996.12
2023-11-01T02:35:05.303Z,996.05
2023-11-01T02:36:05.356Z,996.05
2023-11-01T02:37:05.408Z,996.06
2023-11-01T02:38:05.486Z,996.01
2023-11-01T02:39:05.520Z,996.00
2023-11-01T02:40:05.569Z,996.00
2023-11-01T02:41:05.626Z,996.02
2023-11-01T02:42:05.695Z,995.99
2023-11-01T02:43:05.729Z,996.02
2023-11-01T02:44:05.796Z,996.04
2023-11-01T02:45:05.842Z,996.00
2023-11-01T02:46:05.897Z,995.97
2023-11-01T02:47:05.948Z,995.92
2023-11-01T02:48:06.012Z,995.89
2023-11-01T02:49:06.097Z,995.95
2023-11-01T02:50:06.111Z,995.93
2023-11-01T02:51:06.155Z,995.91
2023-11-01T02:52:06.223Z,995.96
2023-11-01T02:53:06.263Z,995.95
2023-11-01T02:54:06.343Z,995.90
2023-11-01T02:55:06.385Z,995.93
2023-11-01T02:56:06.426Z,995.93
2023-11-01T02:57:06.490Z,995.93
2023-11-01T02:58:06.545Z,995.91
2023-11-01T02:59:06.598Z,995.89
2023-11-01T03:00:06.640Z,995.87
2023-11-01T03:01:06.693Z,995.84
2023-11-01T03:02:06.751Z,995.88
2023-11-01T03:03:06.803Z,995.84
2023-11-01T03:04:06.879Z,995.83
2023-11-01T03:05:06.907Z,995.83
2023-11-01T03:06:06.960Z,995.85
2023-11-01T03:07:07.015Z,995.84
2023-11-01T03:08:07.074Z,995.79
2023-11-01T03:09:07.121Z,995.81
2023-11-01T03:10:07.197Z,995.83
2023-11-01T03:11:07.228Z,995.80
2023-11-01T03:12:07.280Z,995.79
2023-11-01T03:13:07.340Z,995.76
2023-11-01T03:14:07.419Z,995.77
2023-11-01T03:15:07.441Z,995.80
2023-11-01T03:16:07.568Z,995.78
2023-11-01T03:17:07.547Z,995.84
2023-11-01T03:18:07.650Z,995.84
2023-11-01T03:19:07.653Z,995.80
2023-11-01T03:20:07.708Z,995.76
2023-11-01T03:21:07.760Z,995.76
2023-11-01T03:22:07.820Z,995.79
2023-11-01T03:23:07.865Z,995.77
2023-11-01T03:24:07.918Z,995.75
2023-11-01T03:25:07.975Z,995.76
2023-11-01T03:26:08.050Z,995.77
2023-11-01T03:27:08.086Z,995.73
2023-11-01T03:28:08.134Z,995.76
2023-11-01T03:29:08.203Z,995.73
2023-11-01T03:30:08.249Z,995.71
2023-11-01T03:31:08.330Z,995.70
2023-11-01T03:32:08.351Z,995.69
2023-11-01T03:33:08.518Z,995.68
2023-11-01T03:34:08.464Z,995.69
2023-11-01T03:35:08.512Z,995.66
2023-11-01T03:36:08.586Z,995.63
2023-11-01T03:37:08.627Z,995.66
2023-11-01T03:38:08.675Z,995.57
2023-11-01T03:39:08.735Z,995.63
2023-11-01T03:40:08.787Z,995.58
2023-11-01T03:41:08.844Z,995.61
2023-11-01T03:42:08.905Z,995.58
2023-11-01T03:43:08.941Z,995.55
2023-11-01T03:44:08.992Z,995.58
2023-11-01T03:45:09.045Z,995.56
2023-11-01T03:46:09.152Z,995.56
2023-11-01T03:47:09.214Z,995.59
2023-11-01T03:48:09.300Z,995.59
2023-11-01T03:49:09.262Z,995.60
2023-11-01T03:50:09.318Z,995.60
2023-11-01T03:51:09.371Z,995.56
2023-11-01T03:52:09.427Z,995.55
2023-11-01T03:53:09.470Z,995.56
2023-11-01T03:54:09.529Z,995.61
2023-11-01T03:55:09.600Z,995.53
2023-11-01T03:56:09.638Z,995.53
2023-11-01T03:57:09.702Z,995.58
2023-11-01T03:58:09.856Z,995.55
2023-11-01T03:59:09.839Z,995.59
2023-11-01T04:00:09.865Z,995.51
2023-11-01T04:01:09.933Z,995.55
2023-11-01T04:02:09.961Z,995.53
2023-11-01T04:03:10.164Z,995.48
2023-11-01T04:04:10.114Z,995.48
2023-11-01T04:05:10.120Z,995.46
2023-11-01T04:06:10.172Z,995.45
2023-11-01T04:07:10.228Z,995.47
2023-11-01T04:08:10.287Z,995.47
2023-11-01T04:09:10.337Z,995.45
2023-11-01T04:10:10.392Z,995.42
2023-11-01T04:11:10.443Z,995.42
2023-11-01T04:12:10.496Z,995.38
2023-11-01T04:13:10.552Z,995.39
2023-11-01T04:14:10.622Z,995.41
2023-11-01T04:15:10.660Z,995.41
2023-11-01T04:16:10.769Z,995.43
2023-11-01T04:17:10.776Z,995.43
2023-11-01T04:18:10.882Z,995.41
2023-11-01T04:19:10.881Z,995.42
2023-11-01T04:20:10.941Z,995.31
2023-11-01T04:21:10.978Z,995.42
2023-11-01T04:22:11.037Z,995.38
2023-11-01T04:23:11.139Z,995.41
2023-11-01T04:24:11.428Z,995.43
2023-11-01T04:25:11.190Z,995.42
2023-11-01T04:26:11.249Z,995.44
2023-11-01T04:27:11.301Z,995.42
2023-11-01T04:28:11.356Z,995.42
2023-11-01T04:29:11.409Z,995.47
2023-11-01T04:30:11.612Z,995.45
2023-11-01T04:31:11.515Z,995.46
2023-11-01T04:32:11.574Z,995.40
2023-11-01T04:33:11.855Z,995.45
2023-11-01T04:34:11.682Z,995.43
2023-11-01T04:35:11.730Z,995.47
2023-11-01T04:36:11.861Z,995.48
2023-11-01T04:37:11.841Z,995.45
2023-11-01T04:38:11.899Z,995.49
2023-11-01T04:39:11.993Z,995.49
2023-11-01T04:40:12.004Z,995.46
2023-11-01T04:41:12.055Z,995.44
2023-11-01T04:42:12.113Z,995.44
2023-11-01T04:43:12.164Z,995.39
2023-11-01T04:44:12.215Z,995.27
2023-11-01T04:45:12.271Z,995.29
2023-11-01T04:46:12.350Z,995.25
2023-11-01T04:47:12.379Z,995.32
2023-11-01T04:48:12.462Z,995.27
2023-11-01T04:49:12.486Z,995.30
2023-11-01T04:50:12.572Z,995.33
2023-11-01T04:51:12.590Z,995.27
2023-11-01T04:52:12.648Z,995.22
2023-11-01T04:53:12.698Z,995.28
2023-11-01T04:54:12.754Z,995.22
2023-11-01T04:55:12.850Z,995.21
2023-11-01T04:56:12.904Z,995.18
2023-11-01T04:57:12.915Z,995.11
2023-11-01T04:58:12.968Z,995.17
2023-11-01T04:59:13.020Z,995.27
2023-11-01T05:00:13.075Z,995.26
2023-11-01T05:01:13.152Z,995.21
2023-11-01T05:02:13.224Z,995.14
2023-11-01T05:03:13.304Z,995.16
2023-11-01T05:04:13.352Z,995.10
2023-11-01T05:05:13.346Z,995.12
2023-11-01T05:06:13.406Z,995.16
2023-11-01T05:07:13.459Z,995.13
2023-11-01T05:08:13.516Z,995.13
2023-11-01T05:09:13.561Z,995.11
2023-11-01T05:10:13.614Z,995.15
2023-11-01T05:11:13.672Z,995.08
2023-11-01T05:12:13.721Z,995.05
2023-11-01T05:13:13.775Z,995.10
2023-11-01T05:14:13.830Z,995.09
2023-11-01T05:15:13.900Z,995.11
2023-11-01T05:16:13.971Z,995.09
2023-11-01T05:17:13.993Z,995.09
2023-11-01T05:18:14.089Z,995.06
2023-11-01T05:19:14.098Z,995.06
2023-11-01T05:20:14.154Z,995.11
2023-11-01T05:21:14.212Z,995.07
2023-11-01T05:22:14.272Z,995.01
2023-11-01T05:23:14.320Z,995.07
2023-11-01T05:24:14.366Z,995.06
2023-11-01T05:25:14.553Z,995.08
2023-11-01T05:26:14.473Z,995.07
2023-11-01T05:27:14.543Z,995.03
2023-11-01T05:28:14.665Z,995.04
2023-11-01T05:29:14.637Z,995.09
2023-11-01T05:30:14.688Z,995.07
2023-11-01T05:31:14.793Z,995.02
2023-11-01T05:32:14.799Z,995.12
2023-11-01T05:33:14.905Z,994.99
2023-11-01T05:34:14.928Z,995.01
2023-11-01T05:35:14.956Z,995.01
2023-11-01T05:36:15.016Z,994.99
2023-11-01T05:37:15.063Z,995.01
2023-11-01T05:38:15.140Z,995.07
2023-11-01T05:39:15.179Z,995.03
2023-11-01T05:40:15.336Z,995.02
2023-11-01T05:41:15.325Z,995.09
2023-11-01T05:42:15.334Z,995.05
2023-11-01T05:43:15.388Z,995.01
2023-11-01T05:44:15.502Z,995.07
2023-11-01T05:45:15.496Z,995.04
2023-11-01T05:46:15.566Z,995.00
2023-11-01T05:47:15.601Z,995.01
2023-11-01T05:48:15.709Z,995.03
2023-11-01T05:49:15.709Z,994.96
2023-11-01T05:50:15.853Z,994.99
2023-11-01T05:51:15.828Z,995.02
2023-11-01T05:52:15.870Z,995.03
2023-11-01T05:53:16.036Z,995.02
2023-11-01T05:54:15.979Z,995.04
2023-11-01T05:55:23.547Z,995.03
2023-11-01T05:56:16.112Z,995.06
2023-11-01T05:57:18.072Z,995.03
2023-11-01T05:58:16.200Z,995.04
2023-11-01T05:59:16.289Z,995.01
2023-11-01T06:00:16.305Z,995.02
2023-11-01T06:01:16.388Z,995.04
2023-11-01T06:02:16.457Z,995.02
2023-11-01T06:03:16.675Z,995.03
2023-11-01T06:04:16.545Z,995.03
2023-11-01T06:05:16.679Z,995.05
2023-11-01T06:06:16.650Z,995.07
2023-11-01T06:07:16.684Z,995.04
2023-11-01T06:08:16.782Z,995.01
2023-11-01T06:09:16.784Z,995.02
2023-11-01T06:10:16.865Z,995.04
2023-11-01T06:11:16.920Z,995.08
2023-11-01T06:12:16.955Z,995.05
2023-11-01T06:13:17.004Z,995.06
2023-11-01T06:14:17.099Z,995.08
2023-11-01T06:15:17.142Z,995.00
2023-11-01T06:16:17.191Z,995.06
2023-11-01T06:17:17.232Z,995.02
2023-11-01T06:18:17.310Z,995.04
2023-11-01T06:19:17.323Z,995.04
2023-11-01T06:20:17.416Z,995.03
2023-11-01T06:21:17.437Z,995.04
2023-11-01T06:22:17.510Z,995.02
2023-11-01T06:23:17.567Z,995.03
2023-11-01T06:24:17.592Z,995.07
2023-11-01T06:25:17.649Z,994.99
2023-11-01T06:26:17.980Z,994.93
2023-11-01T06:27:17.766Z,994.93
2023-11-01T06:28:17.818Z,994.94
2023-11-01T06:29:18.002Z,994.89
2023-11-01T06:30:17.920Z,994.96
2023-11-01T06:31:17.969Z,994.97
2023-11-01T06:32:18.186Z,994.93
2023-11-01T06:33:18.146Z,994.95
2023-11-01T06:34:18.243Z,995.01
2023-11-01T06:35:18.218Z,994.98
2023-11-01T06:36:18.238Z,995.00
2023-11-01T06:37:18.316Z,994.96
2023-11-01T06:38:18.420Z,994.98
2023-11-01T06:39:18.400Z,994.98
2023-11-01T06:40:18.473Z,994.91
2023-11-01T06:41:18.556Z,994.96
2023-11-01T06:42:18.571Z,994.97
2023-11-01T06:43:18.613Z,994.96
2023-11-01T06:44:18.687Z,994.94
2023-11-01T06:45:18.726Z,994.92
2023-11-01T06:46:18.813Z,994.96
2023-11-01T06:47:18.828Z,994.97
2023-11-01T06:48:18.961Z,994.97
2023-11-01T06:49:18.938Z,994.92
2023-11-01T06:50:19.023Z,994.95
2023-11-01T06:51:19.048Z,994.86
2023-11-01T06:52:19.099Z,994.94
2023-11-01T06:53:19.154Z,994.92
2023-11-01T06:54:19.232Z,994.93
2023-11-01T06:55:19.261Z,994.93
2023-11-01T06:56:21.913Z,994.92
2023-11-01T06:57:19.379Z,994.90
2023-11-01T06:58:19.423Z,994.93
2023-11-01T06:59:19.512Z,994.92
2023-11-01T07:00:19.543Z,994.89
2023-11-01T07:01:19.657Z,994.94
2023-11-01T07:02:19.672Z,994.92
2023-11-01T07:03:19.823Z,994.92
2023-11-01T07:04:19.806Z,994.89
2023-11-01T07:05:19.825Z,994.91
2023-11-01T07:06:19.856Z,994.92
2023-11-01T07:07:20.885Z,994.93
2023-11-01T07:08:19.987Z,994.94
2023-11-01T07:09:20.023Z,994.97
2023-11-01T07:10:20.089Z,994.92
2023-11-01T07:11:20.218Z,994.89
2023-11-01T07:12:20.188Z,994.92
2023-11-01T07:13:20.232Z,994.90
2023-11-01T07:14:20.297Z,994.90
2023-11-01T07:15:20.348Z,994.91
2023-11-01T07:16:20.394Z,994.98
2023-11-01T07:17:20.487Z,994.91
2023-11-01T07:18:20.613Z,994.93
2023-11-01T07:19:20.569Z,994.92
2023-11-01T07:20:20.718Z,994.96
2023-11-01T07:21:20.668Z,994.98
2023-11-01T07:22:20.727Z,994.94
2023-11-01T07:23:20.829Z,995.00
2023-11-01T07:24:20.903Z,994.96
2023-11-01T07:25:20.882Z,994.99
2023-11-01T07:26:20.966Z,994.93
2023-11-01T07:27:20.991Z,994.93
2023-11-01T07:28:21.053Z,994.93
2023-11-01T07:29:21.165Z,994.91
2023-11-01T07:30:21.155Z,994.93
2023-11-01T07:31:21.308Z,994.95
2023-11-01T07:32:23.498Z,994.95
2023-11-01T07:33:21.410Z,994.97
2023-11-01T07:34:21.380Z,994.93
2023-11-01T07:35:21.463Z,994.94
2023-11-01T07:36:21.490Z,994.93
2023-11-01T07:37:21.539Z,994.95
2023-11-01T07:38:21.611Z,994.97
2023-11-01T07:39:21.653Z,995.00
2023-11-01T07:40:21.702Z,995.01
2023-11-01T07:41:21.782Z,994.96
2023-11-01T07:42:21.829Z,995.01
2023-11-01T07:43:21.870Z,994.98
2023-11-01T07:44:21.941Z,995.00
2023-11-01T07:45:21.991Z,994.96
2023-11-01T07:46:22.100Z,994.93
2023-11-01T07:47:22.108Z,994.97
2023-11-01T07:48:22.234Z,994.96
2023-11-01T07:49:22.193Z,994.97
2023-11-01T07:50:22.276Z,994.92
2023-11-01T07:51:22.294Z,995.00
2023-11-01T07:52:22.357Z,995.02
2023-11-01T07:53:22.454Z,995.01
2023-11-01T07:54:22.465Z,995.03
2023-11-01T07:55:22.516Z,995.01
2023-11-01T07:56:22.607Z,994.98
2023-11-01T07:57:22.627Z,994.98
2023-11-01T07:58:22.699Z,995.01
2023-11-01T07:59:22.750Z,995.04
2023-11-01T08:00:22.795Z,995.03
2023-11-01T08:01:22.918Z,995.07
2023-11-01T08:02:22.940Z,995.06
2023-11-01T08:03:23.094Z,995.07
2023-11-01T08:04:23.147Z,995.07
2023-11-01T08:05:23.084Z,995.07
2023-11-01T08:06:23.113Z,995.11
2023-11-01T08:07:23.168Z,995.12
2023-11-01T08:08:23.242Z,995.06
2023-11-01T08:09:23.279Z,995.07
2023-11-01T08:10:23.328Z,995.07
2023-11-01T08:11:23.425Z,995.04
2023-11-01T08:12:23.446Z,995.06
2023-11-01T08:13:23.494Z,995.10
2023-11-01T08:14:23.616Z,995.11
2023-11-01T08:15:23.608Z,995.08
2023-11-01T08:16:23.726Z,995.05
2023-11-01T08:17:23.773Z,995.04
2023-11-01T08:18:23.852Z,994.99
2023-11-01T08:19:23.824Z,995.05
2023-11-01T08:20:23.893Z,995.01
2023-11-01T08:21:23.940Z,995.00
2023-11-01T08:22:23.994Z,995.03
2023-11-01T08:23:24.057Z,995.00
2023-11-01T08:24:24.099Z,994.93
2023-11-01T08:25:24.153Z,994.96
2023-11-01T08:26:24.241Z,994.94
2023-11-01T08:27:24.262Z,994.96
2023-11-01T08:28:24.316Z,994.96
2023-11-01T08:29:24.400Z,994.93
2023-11-01T08:30:24.452Z,994.97
2023-11-01T08:31:24.489Z,994.95
2023-11-01T08:32:24.561Z,994.94
2023-11-01T08:33:24.697Z,994.93
2023-11-01T08:34:24.645Z,994.94
2023-11-01T08:35:25.090Z,994.90
2023-11-01T08:36:24.756Z,994.90
2023-11-01T08:37:24.809Z,994.90
2023-11-01T08:38:24.873Z,994.87
2023-11-01T08:39:24.921Z,994.87
2023-11-01T08:40:24.978Z,994.88
2023-11-01T08:41:25.052Z,994.86
2023-11-01T08:42:25.087Z,994.90
2023-11-01T08:43:25.146Z,994.94
2023-11-01T08:44:25.205Z,994.87
2023-11-01T08:45:25.262Z,994.89
2023-11-01T08:46:25.343Z,994.84
2023-11-01T08:47:25.405Z,994.91
2023-11-01T08:48:25.461Z,994.89
2023-11-01T08:49:25.472Z,994.89
2023-11-01T08:50:25.533Z,994.89
2023-11-01T08:51:25.578Z,994.91
2023-11-01T08:52:25.633Z,994.91
2023-11-01T08:53:28.329Z,994.89
2023-11-01T08:54:25.744Z,994.89
2023-11-01T08:55:25.799Z,994.88
2023-11-01T08:56:25.853Z,994.87
2023-11-01T08:57:25.907Z,994.85
2023-11-01T08:58:25.962Z,994.82
2023-11-01T08:59:26.025Z,994.79
2023-11-01T09:00:35.199Z,994.80
2023-11-01T09:01:26.266Z,994.77
2023-11-01T09:02:26.279Z,994.74
2023-11-01T09:03:26.294Z,994.79
2023-11-01T09:04:26.322Z,994.73
2023-11-01T09:05:26.384Z,994.75
2023-11-01T09:06:26.405Z,994.79
2023-11-01T09:07:26.459Z,994.82
2023-11-01T09:08:26.573Z,994.81
2023-11-01T09:09:26.568Z,994.80
2023-11-01T09:10:26.629Z,994.80
2023-11-01T09:11:26.769Z,994.82
2023-11-01T09:12:26.778Z,994.79
2023-11-01T09:13:26.797Z,994.76
2023-11-01T09:14:26.865Z,994.82
2023-11-01T09:15:26.901Z,994.80
2023-11-01T09:16:27.008Z,994.85
2023-11-01T09:17:27.109Z,994.81
2023-11-01T09:18:27.144Z,994.82
2023-11-01T09:19:27.139Z,994.83
2023-11-01T09:20:27.213Z,994.81
2023-11-01T09:21:27.232Z,994.79
2023-11-01T09:22:27.298Z,994.77
2023-11-01T09:23:27.369Z,994.83
2023-11-01T09:24:27.402Z,994.86
2023-11-01T09:25:27.493Z,994.86
2023-11-01T09:26:27.533Z,994.82
2023-11-01T09:27:27.589Z,994.82
2023-11-01T09:28:27.653Z,994.83
2023-11-01T09:29:27.694Z,994.81
2023-11-01T09:30:27.736Z,994.86
2023-11-01T09:31:27.788Z,994.92
2023-11-01T09:32:27.918Z,994.89
2023-11-01T09:33:28.058Z,994.90
2023-11-01T09:34:27.981Z,994.93
2023-11-01T09:35:28.064Z,994.93
2023-11-01T09:36:28.067Z,994.92
2023-11-01T09:37:28.124Z,994.93
2023-11-01T09:38:28.220Z,994.94
2023-11-01T09:39:28.243Z,994.91
2023-11-01T09:40:28.321Z,994.97
2023-11-01T09:41:28.401Z,994.95
2023-11-01T09:42:28.403Z,994.96
2023-11-01T09:43:28.454Z,995.00
2023-11-01T09:44:28.509Z,994.99
2023-11-01T09:45:28.572Z,994.96
2023-11-01T09:46:28.666Z,994.96
2023-11-01T09:47:28.917Z,995.04
2023-11-01T09:48:28.796Z,995.00
2023-11-01T09:49:28.786Z,995.02
2023-11-01T09:50:28.872Z,994.94
2023-11-01T09:51:28.894Z,994.96
2023-11-01T09:52:28.949Z,994.96
2023-11-01T09:53:29.043Z,994.98
2023-11-01T09:54:29.070Z,994.98
2023-11-01T09:55:29.120Z,994.97
2023-11-01T09:56:29.189Z,994.95
2023-11-01T09:57:29.227Z,994.98
2023-11-01T09:58:29.280Z,994.98
2023-11-01T09:59:29.342Z,994.96
2023-11-01T10:00:29.391Z,994.92
2023-11-01T10:01:29.465Z,994.91
2023-11-01T10:02:29.568Z,994.92
2023-11-01T10:03:29.691Z,994.89
2023-11-01T10:04:29.659Z,994.86
2023-11-01T10:05:29.715Z,994.82
2023-11-01T10:06:29.741Z,994.84
2023-11-01T10:07:29.778Z,994.84
2023-11-01T10:08:29.852Z,994.82
2023-11-01T10:09:29.893Z,994.77
2023-11-01T10:10:29.949Z,994.80
2023-11-01T10:11:31.234Z,994.83
2023-11-01T10:12:30.074Z,994.81
2023-11-01T10:13:30.112Z,994.86
2023-11-01T10:14:30.246Z,994.80
2023-11-01T10:15:30.226Z,994.80
2023-11-01T10:16:30.298Z,994.77
2023-11-01T10:17:30.388Z,994.77
2023-11-01T10:18:30.436Z,994.78
2023-11-01T10:19:30.448Z,994.78
2023-11-01T10:20:30.555Z,994.80
2023-11-01T10:21:30.557Z,994.71
2023-11-01T10:22:30.657Z,994.71
2023-11-01T10:23:30.675Z,994.70
2023-11-01T10:24:30.726Z,994.70
2023-11-01T10:25:30.809Z,994.71
2023-11-01T10:26:31.313Z,994.72
2023-11-01T10:27:30.895Z,994.77
2023-11-01T10:28:30.951Z,994.73
2023-11-01T10:29:31.045Z,994.77
2023-11-01T10:30:31.061Z,994.75
2023-11-01T10:31:31.121Z,994.72
2023-11-01T10:32:31.254Z,994.75
2023-11-01T10:33:31.340Z,994.72
2023-11-01T10:34:31.340Z,994.70
2023-11-01T10:35:31.359Z,994.70
2023-11-01T10:36:31.403Z,994.70
2023-11-01T10:37:31.458Z,994.71
2023-11-01T10:38:31.555Z,994.65
2023-11-01T10:39:31.576Z,994.61
2023-11-01T10:40:31.624Z,994.58
2023-11-01T10:41:31.718Z,994.58
2023-11-01T10:42:31.743Z,994.56
2023-11-01T10:43:31.853Z,994.55
2023-11-01T10:44:31.930Z,994.46
2023-11-01T10:45:31.935Z,994.46
2023-11-01T10:46:31.969Z,994.45
2023-11-01T10:47:32.078Z,994.44
2023-11-01T10:48:32.226Z,994.46
2023-11-01T10:49:32.137Z,994.46
2023-11-01T10:50:32.208Z,994.38
2023-11-01T10:51:32.248Z,994.38
2023-11-01T10:52:32.307Z,994.38
2023-11-01T10:53:32.412Z,994.33
2023-11-01T10:54:32.609Z,994.30
2023-11-01T10:55:32.478Z,994.28
2023-11-01T10:56:32.627Z,994.30
2023-11-01T10:57:32.602Z,994.26
2023-11-01T10:58:32.641Z,994.22
2023-11-01T10:59:32.721Z,994.16
2023-11-01T11:00:32.767Z,994.12
2023-11-01T11:01:32.814Z,994.11
2023-11-01T11:02:32.913Z,994.10
2023-11-01T11:03:33.065Z,994.08
2023-11-01T11:04:33.214Z,994.00
2023-11-01T11:05:33.051Z,993.88
2023-11-01T11:06:33.095Z,993.98
2023-11-01T11:07:33.153Z,994.04
2023-11-01T11:08:33.222Z,993.99
2023-11-01T11:09:33.281Z,993.96
2023-11-01T11:10:33.480Z,993.95
2023-11-01T11:11:33.410Z,993.92
2023-11-01T11:12:33.439Z,993.88
2023-11-01T11:13:33.496Z,993.87
2023-11-01T11:14:33.711Z,993.82
2023-11-01T11:15:33.672Z,993.79
2023-11-01T11:16:33.674Z,993.78
2023-11-01T11:17:33.757Z,993.82
2023-11-01T11:18:35.382Z,993.79
2023-11-01T11:19:33.831Z,993.74
2023-11-01T11:20:33.942Z,993.70
2023-11-01T11:21:33.945Z,993.70
2023-11-01T11:22:34.004Z,993.76
2023-11-01T11:23:34.312Z,993.75
2023-11-01T11:24:35.869Z,993.73
2023-11-01T11:25:34.170Z,993.73
2023-11-01T11:26:34.267Z,993.73
2023-11-01T11:27:34.288Z,993.70
2023-11-01T11:28:34.343Z,993.71
2023-11-01T11:29:34.440Z,993.64
2023-11-01T11:30:35.945Z,993.64
2023-11-01T11:31:34.526Z,993.60
2023-11-01T11:32:34.697Z,993.61
2023-11-01T11:33:34.745Z,993.61
2023-11-01T11:34:34.685Z,993.58
2023-11-01T11:35:34.748Z,993.59
2023-11-01T11:36:36.418Z,993.59
2023-11-01T11:37:34.860Z,993.59
2023-11-01T11:38:35.063Z,993.53
2023-11-01T11:39:34.970Z,993.54
2023-11-01T11:40:35.024Z,993.45
2023-11-01T11:41:35.122Z,993.52
2023-11-01T11:42:37.854Z,993.46
2023-11-01T11:43:35.231Z,993.45
2023-11-01T11:44:35.320Z,993.42
2023-11-01T11:45:35.317Z,993.45
2023-11-01T11:46:35.372Z,993.44
2023-11-01T11:47:35.568Z,993.46
2023-11-01T11:48:35.540Z,993.42
2023-11-01T11:49:35.542Z,993.45
2023-11-01T11:50:35.608Z,993.41
2023-11-01T11:51:35.905Z,993.36
2023-11-01T11:52:35.713Z,993.39
2023-11-01T11:53:35.806Z,993.34
2023-11-01T11:54:35.830Z,993.30
2023-11-01T11:55:35.885Z,993.25
2023-11-01T11:56:36.001Z,993.29
2023-11-01T11:57:35.998Z,993.28
2023-11-01T11:58:36.079Z,993.23
2023-11-01T11:59:36.162Z,993.20
2023-11-01T12:00:36.183Z,993.11
2023-11-01T12:01:36.269Z,993.11
2023-11-01T12:02:36.338Z,993.12
2023-11-01T12:03:36.467Z,993.08
2023-11-01T12:04:38.737Z,993.05
2023-11-01T12:05:36.501Z,992.99
2023-11-01T12:06:36.520Z,993.00
2023-11-01T12:07:36.574Z,992.94
2023-11-01T12:08:36.724Z,992.98
2023-11-01T12:09:36.689Z,992.96
2023-11-01T12:10:39.268Z,992.94
2023-11-01T12:11:36.816Z,992.82
2023-11-01T12:12:36.860Z,992.82
2023-11-01T12:13:36.933Z,992.83
2023-11-01T12:14:37.008Z,992.82
2023-11-01T12:15:37.034Z,992.79
2023-11-01T12:16:39.336Z,992.76
2023-11-01T12:17:37.239Z,992.84
2023-11-01T12:18:37.340Z,992.75
2023-11-01T12:19:37.270Z,992.71
2023-11-01T12:20:37.335Z,992.75
2023-11-01T12:21:37.379Z,992.76
2023-11-01T12:22:37.433Z,992.76
2023-11-01T12:23:37.496Z,992.76
2023-11-01T12:24:37.569Z,992.76
2023-11-01T12:25:37.609Z,992.88
2023-11-01T12:26:37.695Z,993.14
2023-11-01T12:27:37.724Z,992.97
2023-11-01T12:28:39.399Z,992.83
2023-11-01T12:29:37.859Z,992.78